Charter Quote
Worldwide +1-877-727-2538 Call
Select Language Lang
SAFETY RELIABILITY EXPERIENCE

Kisarazu Airport (RJTK) - Jet Charter Services

AIRPORT INFORMATION
ICAORJTK
LOCATIONHonshu Island, Japan
FACILITY TYPEAIRPORT
Runway Length (ft) Width (ft) Surface Type Elevation (ft)
20/02 6004 150 ASP 10.00000

At Paramount Business Jets you can hire chartered private jets to and from Kisarazu Airport with as little as 4 hours of notice. All flights booked via Paramount Business Jets are operated by certified direct air carriers that meet and exceed the FAA part 135 and 121 protocol or a foreign equivalent safety authority. Furthermore, Paramount Business Jets subscribes to ARGUS for their third party safety checks of operators, aircraft, and crews prior each and every flight to and from Kisarazu Airport and worldwide.

  • Quote a trip using Kisarazu Airport or call us 24/7 - 365 days a year at +1-877-727-2538.
Questions? Call +1-877-727-2538

METAR Weather Data at Kisarazu Airport, RJTK

STATIONRJTK
OBSERVEDWed Mar 13, 02:05 UTC
NOWTue Mar 19, 20:48 UTC
AGE162:43 hr ago
WINDSW at 31 mph, gusting to 41 mph
VISIBILITY16 miles
CLOUDSpartly cloudy
TEMP59°F (15°C)
DEWPT36°F (2°C)
HUMIDITY42%
BAROMETER1004 hPa (29.65 in Hg)
METARRJTK 130205Z 23027G36KT 9999 FEW030 15/02 Q1004 RMK 1CU030 A2966

Call us on +1-877-727-2538 (24 Hours) to Hire a Private Jet or Get a Quick Quote.

Find Airports Near any Location

Processing
...